Time;durP1;ratioP1;P1;durP2;ratioP2;P2;SDS_P1;SDS_P2;PMS_P1;PMS_P2;Temp;Humidity;BMP_temperature;BMP_pressure;BME280_temperature;BME280_humidity;BME280_pressure;Samples;Min_cycle;Max_cycle;Signal;HPM_P1;HPM_P2
2021/06/28 00:01:21;;;;;;;13.27;12.05;;;;;;;17.48;68.35;93721.91;5110260;28;20023;-52
2021/06/28 00:03:47;;;;;;;12.32;11.40;;;;;;;17.38;68.93;93719.13;5104818;28;20437;-54
2021/06/28 00:06:13;;;;;;;14.05;12.68;;;;;;;17.40;68.49;93727.63;5089928;28;20028;-56
2021/06/28 00:08:39;;;;;;;13.70;12.70;;;;;;;17.39;68.85;93719.84;5089599;28;20702;-58
2021/06/28 00:11:06;;;;;;;13.23;12.18;;;;;;;17.45;68.74;93723.81;5089044;28;20016;-59
2021/06/28 00:13:32;;;;;;;13.05;12.05;;;;;;;17.39;68.90;93731.75;5089594;28;20032;-58
2021/06/28 00:15:58;;;;;;;14.15;13.15;;;;;;;17.19;69.49;93735.13;5089588;28;20039;-59
2021/06/28 00:18:24;;;;;;;16.15;14.95;;;;;;;17.26;69.84;93728.66;5089480;28;20024;-59
2021/06/28 00:20:50;;;;;;;15.13;14.15;;;;;;;17.26;69.49;93737.03;5089387;28;20027;-58
2021/06/28 00:23:16;;;;;;;166.43;150.80;;;;;;;17.12;69.13;93717.19;5089751;28;20508;-57
2021/06/28 00:25:41;;;;;;;152.00;141.30;;;;;;;17.17;68.97;93730.09;5089748;28;20035;-58
2021/06/28 00:28:08;;;;;;;142.13;129.00;;;;;;;17.16;68.10;93727.91;5089876;28;20028;-58
2021/06/28 00:30:37;;;;;;;10.13;9.05;;;;;;;17.17;68.17;93730.09;5109457;28;20144;-57
2021/06/28 00:33:05;;;;;;;10.43;9.57;;;;;;;17.09;68.27;93731.56;5110001;28;20035;-53
2021/06/28 00:35:30;;;;;;;12.40;11.23;;;;;;;17.04;68.68;93729.81;5109759;28;20020;-52
2021/06/28 00:37:56;;;;;;;16.13;14.75;;;;;;;16.90;69.87;93714.78;5112803;28;20031;-53
2021/06/28 00:40:22;;;;;;;15.60;14.38;;;;;;;16.91;70.15;93728.16;5114155;28;20078;-51
2021/06/28 00:42:48;;;;;;;13.15;12.13;;;;;;;16.89;69.12;93732.84;5113874;28;20527;-51
2021/06/28 00:45:38;;;;;;;12.70;11.63;;;;;;;16.86;69.59;93728.44;5114124;28;20032;-52
2021/06/28 00:48:11;;;;;;;12.75;11.63;;;;;;;16.91;69.42;93730.97;5108483;28;20071;-55
2021/06/28 00:50:40;;;;;;;11.20;10.07;;;;;;;16.89;68.50;93730.06;5114032;28;20106;-55
2021/06/28 00:53:08;;;;;;;13.05;11.95;;;;;;;16.86;69.04;93731.22;5113739;28;20525;-54
2021/06/28 00:55:35;;;;;;;12.20;11.32;;;;;;;16.78;69.21;93730.63;5113954;27;20060;-56
2021/06/28 00:58:01;;;;;;;13.25;10.63;;;;;;;16.80;68.47;93722.41;5113988;28;20035;-57
2021/06/28 01:00:26;;;;;;;13.38;12.25;;;;;;;16.68;68.93;93725.75;5104798;28;20051;-57
2021/06/28 01:02:52;;;;;;;11.23;10.32;;;;;;;16.65;68.79;93724.09;5093277;28;20408;-54
2021/06/28 01:05:20;;;;;;;10.88;9.98;;;;;;;16.57;68.47;93731.88;5093533;28;20089;-54
2021/06/28 01:07:46;;;;;;;10.77;10.00;;;;;;;16.62;68.07;93728.06;5092662;28;20040;-54
2021/06/28 01:10:14;;;;;;;11.15;10.15;;;;;;;16.64;68.30;93728.22;5092880;28;20528;-54
2021/06/28 01:12:41;;;;;;;10.35;9.65;;;;;;;16.50;68.69;93718.78;5092951;28;20024;-53
2021/06/28 01:15:07;;;;;;;13.80;12.57;;;;;;;16.31;69.66;93726.28;5095853;28;20023;-55
2021/06/28 01:17:33;;;;;;;15.07;13.88;;;;;;;16.27;69.99;93726.72;5103623;28;20046;-55
2021/06/28 01:20:08;;;;;;;17.58;16.38;;;;;;;16.17;71.30;93723.16;5102697;28;20409;-52
2021/06/28 01:22:35;;;;;;;18.23;17.05;;;;;;;16.17;71.93;93719.66;5101647;28;20024;-55
2021/06/28 01:25:02;;;;;;;20.10;18.85;;;;;;;16.21;71.54;93720.69;5102571;28;20027;-54
2021/06/28 01:27:28;;;;;;;19.15;18.02;;;;;;;16.25;71.46;93714.69;5103428;28;21292;-55
2021/06/28 01:29:55;;;;;;;18.88;17.73;;;;;;;16.14;71.77;93704.81;5103697;28;20031;-57
2021/06/28 01:32:21;;;;;;;18.63;17.30;;;;;;;16.20;71.32;93708.06;5102034;28;20051;-59
2021/06/28 01:34:47;;;;;;;17.98;16.77;;;;;;;16.20;71.19;93724.06;5104477;28;20047;-58
2021/06/28 01:37:20;;;;;;;17.67;16.48;;;;;;;16.20;71.00;93718.50;5102957;28;20485;-58
2021/06/28 01:39:51;;;;;;;18.63;17.20;;;;;;;16.15;71.17;93725.81;5102026;28;20031;-55
2021/06/28 01:42:16;;;;;;;21.60;19.80;;;;;;;16.00;71.15;93703.00;5101094;28;20016;-59
2021/06/28 01:44:42;;;;;;;19.60;17.88;;;;;;;16.28;70.94;93725.44;5111344;28;20089;-58
2021/06/28 01:47:07;;;;;;;18.23;16.67;;;;;;;16.24;70.71;93719.53;5112927;28;20026;-57
2021/06/28 01:49:33;;;;;;;20.30;18.80;;;;;;;16.06;71.27;93720.16;5100068;28;20630;-59
2021/06/28 01:51:58;;;;;;;19.30;18.00;;;;;;;15.81;71.96;93728.66;5111739;28;20024;-56
2021/06/28 01:54:27;;;;;;;19.40;18.00;;;;;;;15.99;71.90;93732.88;5093348;28;20080;-60
2021/06/28 01:56:53;;;;;;;16.75;15.13;;;;;;;16.05;70.84;93735.41;5102138;28;20028;-60
2021/06/28 01:59:18;;;;;;;15.98;14.88;;;;;;;16.12;70.53;93724.16;5109758;28;20504;-61
2021/06/28 02:01:44;;;;;;;15.80;14.70;;;;;;;16.09;70.49;93724.59;5094855;28;20024;-61
2021/06/28 02:04:16;;;;;;;15.07;13.98;;;;;;;16.11;70.14;93719.91;5090732;28;20118;-60
2021/06/28 02:06:42;;;;;;;14.13;13.13;;;;;;;16.11;69.62;93722.69;5092284;28;20052;-60
2021/06/28 02:09:07;;;;;;;14.32;13.35;;;;;;;16.10;69.81;93726.06;5091782;28;20028;-60
2021/06/28 02:11:33;;;;;;;16.20;15.05;;;;;;;16.04;70.21;93725.59;5101360;28;20012;-60
2021/06/28 02:13:58;;;;;;;16.13;14.90;;;;;;;15.98;70.41;93733.47;5112414;28;20051;-60
2021/06/28 02:16:23;;;;;;;16.27;14.93;;;;;;;15.94;70.17;93728.31;5112377;28;20503;-60
2021/06/28 02:18:49;;;;;;;15.50;14.38;;;;;;;15.94;69.93;93728.31;5112375;28;20538;-60
2021/06/28 02:21:14;;;;;;;13.65;12.55;;;;;;;15.93;69.25;93722.03;5112094;28;20408;-59
2021/06/28 02:23:40;;;;;;;12.77;11.88;;;;;;;15.85;69.47;93734.56;5111989;28;20023;-59
2021/06/28 02:26:08;;;;;;;13.75;12.50;;;;;;;15.74;69.19;93729.50;5111795;28;20015;-60
2021/06/28 02:28:53;;;;;;;13.40;12.50;;;;;;;15.67;69.27;93735.91;5107548;28;20558;-57
2021/06/28 02:31:20;;;;;;;13.80;12.70;;;;;;;15.68;69.72;93745.75;5090851;28;20051;-60
2021/06/28 02:33:48;;;;;;;16.13;14.77;;;;;;;15.59;69.78;93730.41;5091403;28;20065;-60
2021/06/28 02:36:14;;;;;;;14.57;13.65;;;;;;;15.59;69.85;93729.69;5090058;28;20024;-59
2021/06/28 02:38:41;;;;;;;17.08;15.63;;;;;;;15.60;70.02;93729.13;5096645;28;20476;-58
2021/06/28 02:41:07;;;;;;;15.38;14.25;;;;;;;15.62;70.21;93739.66;5111844;28;20028;-59
2021/06/28 02:43:33;;;;;;;16.38;15.27;;;;;;;15.60;70.29;93736.72;5111869;28;20441;-60
2021/06/28 02:45:59;;;;;;;16.33;15.20;;;;;;;15.53;70.62;93735.50;5111565;28;20119;-58
2021/06/28 02:48:24;;;;;;;19.05;17.70;;;;;;;15.53;70.94;93723.63;5111751;28;20076;-59
2021/06/28 02:50:50;;;;;;;20.23;19.02;;;;;;;15.46;71.01;93730.03;5111447;28;20020;-59
2021/06/28 02:53:17;;;;;;;19.25;18.05;;;;;;;15.48;71.22;93732.97;5111664;27;20023;-56
2021/06/28 02:55:44;;;;;;;20.42;19.33;;;;;;;15.48;71.71;93742.06;5111690;28;20028;-56
2021/06/28 02:58:10;;;;;;;20.08;18.98;;;;;;;15.44;71.69;93727.09;5110248;28;20039;-51
2021/06/28 03:00:35;;;;;;;18.77;17.67;;;;;;;15.55;71.85;93737.72;5109835;28;20020;-53
2021/06/28 03:03:01;;;;;;;19.23;18.02;;;;;;;15.46;71.91;93728.00;5111196;28;20549;-54
2021/06/28 03:05:26;;;;;;;25.17;21.60;;;;;;;15.39;72.57;93725.25;5111139;28;20069;-54
2021/06/28 03:07:53;;;;;;;24.50;22.27;;;;;;;15.39;72.86;93734.34;5111437;28;20015;-52
2021/06/28 03:10:18;;;;;;;22.88;21.20;;;;;;;15.42;72.51;93744.31;5111355;28;20035;-54
2021/06/28 03:12:43;;;;;;;18.98;17.60;;;;;;;15.38;72.21;93740.47;5091811;27;20467;-54
2021/06/28 03:15:13;;;;;;;22.00;20.23;;;;;;;15.37;71.80;93741.78;5090640;28;20039;-52
2021/06/28 03:17:38;;;;;;;;;;;;;;;15.42;71.12;93740.81;5091554;28;20046;-56
2021/06/28 03:20:09;;;;;;;19.40;18.17;;;;;;;15.43;70.84;93745.81;5090720;28;19908;-51
2021/06/28 03:22:35;;;;;;;19.00;17.60;;;;;;;15.39;71.07;93742.69;5090627;28;20089;-52
2021/06/28 03:25:00;;;;;;;20.60;18.73;;;;;;;15.23;71.73;93746.94;5090674;28;20031;-54
2021/06/28 03:27:26;;;;;;;19.92;18.33;;;;;;;15.32;71.07;93751.84;5090787;28;20032;-53
2021/06/28 03:29:53;;;;;;;19.45;18.15;;;;;;;15.36;71.46;93751.44;5105289;28;20024;-56
2021/06/28 03:32:19;;;;;;;21.27;19.38;;;;;;;15.37;71.73;93750.88;5110543;28;20047;-58
2021/06/28 03:34:44;;;;;;;20.60;18.88;;;;;;;15.21;71.56;93727.31;5110947;28;20153;-58
2021/06/28 03:37:10;;;;;;;21.17;19.88;;;;;;;15.28;71.88;93753.56;5110926;28;20409;-59
2021/06/28 03:39:35;;;;;;;20.95;19.15;;;;;;;15.30;72.31;93751.69;5110647;28;20031;-57
2021/06/28 03:42:00;;;;;;;20.15;18.70;;;;;;;15.28;72.28;93748.00;5107479;28;20020;-58
2021/06/28 03:44:26;;;;;;;19.85;18.05;;;;;;;15.23;72.58;93751.75;5100958;28;20477;-60
2021/06/28 03:46:51;;;;;;;21.75;20.30;;;;;;;15.31;72.45;93744.81;5109867;28;20023;-58
2021/06/28 03:49:17;;;;;;;25.23;23.60;;;;;;;15.28;72.93;93745.97;5109502;28;20019;-57
2021/06/28 03:51:42;;;;;;;22.83;21.40;;;;;;;15.25;72.99;93751.91;5108405;28;20468;-58
2021/06/28 03:54:08;;;;;;;21.30;19.90;;;;;;;15.30;73.14;93753.72;5089466;28;20711;-51
2021/06/28 03:56:33;;;;;;;18.05;17.05;;;;;;;15.29;73.02;93755.78;5088426;28;20424;-54
2021/06/28 03:58:59;;;;;;;19.60;18.60;;;;;;;15.33;72.82;93758.16;5088607;28;20450;-53
2021/06/28 04:01:24;;;;;;;18.33;17.33;;;;;;;15.44;72.58;93755.63;5088318;28;20521;-54
2021/06/28 04:03:51;;;;;;;16.73;15.50;;;;;;;15.44;72.93;93754.91;5088543;28;20485;-55
2021/06/28 04:06:18;;;;;;;19.10;18.08;;;;;;;15.47;73.01;93759.31;5089366;28;20024;-51
2021/06/28 04:08:43;;;;;;;18.27;17.23;;;;;;;15.39;73.25;93755.88;5089987;28;20073;-52
2021/06/28 04:11:09;;;;;;;20.20;19.08;;;;;;;15.46;73.61;93761.38;5095184;28;20160;-52
2021/06/28 04:13:34;;;;;;;23.80;22.40;;;;;;;15.43;73.88;93764.53;5109986;28;20023;-54
2021/06/28 04:16:00;;;;;;;29.45;27.65;;;;;;;15.49;74.28;93770.63;5110206;28;20516;-54
2021/06/28 04:18:25;;;;;;;31.23;29.52;;;;;;;15.40;75.25;93777.53;5110191;28;20477;-51
2021/06/28 04:20:50;;;;;;;31.30;29.70;;;;;;;15.42;75.16;93771.41;5110065;28;20059;-53
2021/06/28 04:23:17;;;;;;;30.98;29.38;;;;;;;15.51;75.01;93776.34;5110117;28;20031;-56
2021/06/28 04:25:43;;;;;;;30.40;28.90;;;;;;;15.57;75.28;93777.56;5110152;28;20031;-55
2021/06/28 04:28:10;;;;;;;69.80;65.22;;;;;;;15.56;75.04;93759.41;5109167;28;20472;-56
2021/06/28 04:30:35;;;;;;;28.15;26.73;;;;;;;15.71;74.85;93775.19;5088546;28;20055;-57
2021/06/28 04:33:02;;;;;;;29.95;28.48;;;;;;;15.82;74.86;93774.69;5089411;28;20048;-54
2021/06/28 04:35:28;;;;;;;29.65;28.02;;;;;;;15.82;75.19;93771.91;5089415;28;20047;-53
2021/06/28 04:37:56;;;;;;;31.38;29.65;;;;;;;15.92;75.52;93767.13;5089430;28;20020;-53
2021/06/28 04:40:26;;;;;;;31.50;29.45;;;;;;;15.96;75.54;93775.09;5089553;28;20028;-56
2021/06/28 04:42:53;;;;;;;33.13;30.98;;;;;;;15.99;75.94;93766.31;5089720;28;20048;-54
2021/06/28 04:45:19;;;;;;;30.23;28.80;;;;;;;16.04;76.12;93768.09;5088694;28;20035;-53
2021/06/28 04:47:47;;;;;;;31.48;29.98;;;;;;;16.05;76.55;93768.84;5091750;28;20027;-49
2021/06/28 04:50:13;;;;;;;28.50;27.00;;;;;;;16.12;77.02;93768.00;5109871;28;20047;-53
2021/06/28 04:52:39;;;;;;;30.65;28.95;;;;;;;16.22;76.55;93772.28;5109846;28;20035;-55
2021/06/28 04:55:09;;;;;;;32.55;30.77;;;;;;;16.32;77.51;93767.53;5109799;28;20054;-56
2021/06/28 04:57:34;;;;;;;;;;;;;;;16.41;76.63;93774.47;5110135;28;20059;-54
2021/06/28 04:59:59;;;;;;;32.65;30.38;;;;;;;16.50;77.29;93768.94;5109709;28;19985;-56
2021/06/28 05:02:25;;;;;;;33.00;30.60;;;;;;;16.57;77.26;93770.16;5108094;28;20032;-56
2021/06/28 05:04:51;;;;;;;32.15;29.75;;;;;;;16.63;77.50;93771.34;5109757;28;20076;-54
2021/06/28 05:07:17;;;;;;;33.45;31.05;;;;;;;16.71;77.80;93773.28;5109733;28;20023;-55
2021/06/28 05:09:44;;;;;;;36.42;33.38;;;;;;;16.82;77.71;93773.50;5109605;28;20031;-56
2021/06/28 05:12:10;;;;;;;35.05;32.95;;;;;;;16.93;77.59;93777.78;5109598;28;20019;-55
2021/06/28 05:14:35;;;;;;;36.97;34.97;;;;;;;17.01;76.96;93776.34;5109574;28;20080;-57
2021/06/28 05:17:01;;;;;;;36.47;34.47;;;;;;;17.12;77.06;93772.25;5109482;28;20023;-55
2021/06/28 05:19:26;;;;;;;42.90;40.47;;;;;;;17.21;77.06;93771.53;5088644;28;20032;-56
2021/06/28 05:21:52;;;;;;;38.65;36.08;;;;;;;17.27;77.04;93774.78;5088830;28;20031;-55
2021/06/28 05:24:17;;;;;;;33.08;31.17;;;;;;;17.23;76.60;93757.72;5090252;28;20028;-54
2021/06/28 05:41:26;;;;;;;40.83;38.60;;;;;;;18.78;73.24;93802.47;5126453;27;20641;-56
2021/06/28 05:43:51;;;;;;;30.55;28.65;;;;;;;18.77;73.50;93795.41;5117479;28;20737;-56
2021/06/28 05:46:17;;;;;;;20.88;19.42;;;;;;;18.75;72.60;93800.88;5121321;27;20042;-56
2021/06/28 05:48:43;;;;;;;24.38;22.70;;;;;;;18.66;73.73;93802.38;5119303;28;20500;-56
2021/06/28 05:51:09;;;;;;;25.85;24.38;;;;;;;18.73;73.62;93801.44;5110169;28;20023;-56
2021/06/28 05:53:35;;;;;;;24.58;22.95;;;;;;;18.72;74.14;93793.66;5124477;27;20024;-57
2021/06/28 05:56:02;;;;;;;29.42;27.73;;;;;;;18.78;74.46;93802.47;5115382;27;20035;-56
2021/06/28 06:12:59;;;;;;;27.10;24.55;;;;;;;20.10;70.95;93801.53;5064943;28;20615;-52
2021/06/28 06:15:25;;;;;;;18.88;17.67;;;;;;;20.02;71.88;93807.38;5065410;28;20028;-42
2021/06/28 06:17:50;;;;;;;18.08;16.88;;;;;;;19.86;72.54;93797.91;5064824;28;20012;-43
2021/06/28 06:20:16;;;;;;;18.50;17.20;;;;;;;19.81;72.60;93798.25;5065312;28;20063;-44
2021/06/28 06:22:42;;;;;;;16.23;15.13;;;;;;;19.89;72.58;93812.78;5064952;28;20078;-43
2021/06/28 06:25:08;;;;;;;17.33;15.68;;;;;;;19.84;72.41;93813.88;5064906;28;20467;-44
2021/06/28 06:27:34;;;;;;;18.52;17.23;;;;;;;19.76;72.31;93797.25;5065293;28;20017;-46
2021/06/28 06:30:00;;;;;;;18.08;16.40;;;;;;;20.00;72.43;93810.03;5064946;28;20722;-46
2021/06/28 06:32:25;;;;;;;16.63;15.15;;;;;;;19.99;72.67;93810.66;5064896;28;20028;-43
2021/06/28 06:34:51;;;;;;;18.73;17.05;;;;;;;19.92;72.88;93791.97;5064423;28;20017;-45
2021/06/28 06:37:16;;;;;;;15.55;14.45;;;;;;;20.14;71.89;93805.34;5064871;28;20521;-43
2021/06/28 06:39:42;;;;;;;15.95;14.55;;;;;;;20.27;71.31;93804.81;5065092;28;20184;-43
2021/06/28 06:42:08;;;;;;;16.00;14.80;;;;;;;20.29;71.02;93801.41;5064607;28;20025;-43
2021/06/28 06:44:34;;;;;;;17.35;15.85;;;;;;;20.30;69.88;93788.84;5064500;28;20036;-48
2021/06/28 06:46:59;;;;;;;16.92;15.38;;;;;;;20.48;71.15;93806.81;5064517;28;20029;-45
2021/06/28 06:49:25;;;;;;;16.52;15.40;;;;;;;20.48;70.11;93792.81;5064632;28;20036;-43
2021/06/28 06:51:52;;;;;;;16.00;14.73;;;;;;;20.67;69.75;93803.81;5064907;28;20033;-49
2021/06/28 06:54:17;;;;;;;16.88;15.50;;;;;;;20.63;70.56;93806.38;5064876;28;20038;-44
2021/06/28 06:56:43;;;;;;;15.63;14.48;;;;;;;20.72;71.91;93810.41;5064968;28;20025;-47
2021/06/28 06:59:08;;;;;;;15.18;14.07;;;;;;;20.81;69.86;93806.78;5064859;28;20420;-45
2021/06/28 07:01:34;;;;;;;13.52;12.52;;;;;;;20.82;69.42;93789.31;5063737;28;20028;-45
2021/06/28 07:04:00;;;;;;;15.38;14.18;;;;;;;21.00;70.11;93800.94;5064663;28;20429;-43
2021/06/28 07:06:26;;;;;;;14.85;13.57;;;;;;;21.09;69.23;93802.94;5064462;28;20502;-45
2021/06/28 07:08:52;;;;;;;14.70;13.43;;;;;;;21.11;69.58;93809.38;5061794;28;20032;-47
2021/06/28 07:11:17;;;;;;;14.35;12.95;;;;;;;21.24;67.24;93804.50;5051053;28;20083;-47
2021/06/28 07:13:43;;;;;;;12.25;11.15;;;;;;;21.34;66.62;93807.91;5051044;28;20032;-43
2021/06/28 07:16:09;;;;;;;15.85;12.10;;;;;;;;;;5051312;28;20021;-46
2021/06/28 07:18:34;;;;;;;13.93;11.15;;;;;;;21.45;69.30;93793.88;5051464;28;20037;-47
2021/06/28 07:21:00;;;;;;;11.77;10.73;;;;;;;21.59;67.98;93794.69;5050799;28;20067;-46
2021/06/28 07:23:26;;;;;;;14.25;12.77;;;;;;;21.83;69.27;93793.31;5050951;28;20524;-47
2021/06/28 07:25:52;;;;;;;12.60;11.45;;;;;;;21.98;66.07;93792.06;5051193;28;20024;-46
2021/06/28 07:28:17;;;;;;;10.75;8.02;;;;;;;22.18;63.79;93796.00;5050646;28;20500;-44
2021/06/28 07:30:42;;;;;;;9.38;8.48;;;;;;;22.29;63.12;93797.31;5050695;28;20516;-47
2021/06/28 07:33:08;;;;;;;13.10;8.68;;;;;;;22.44;64.09;93793.94;5051060;28;20024;-44
2021/06/28 07:35:33;;;;;;;10.43;8.30;;;;;;;22.78;66.16;93795.88;5050046;28;20039;-44
2021/06/28 07:37:59;;;;;;;8.77;6.57;;;;;;;23.05;61.02;93801.56;5050517;28;20032;-46
2021/06/28 07:40:24;;;;;;;13.65;7.60;;;;;;;23.33;62.14;93791.06;5051009;28;20033;-44
2021/06/28 07:42:51;;;;;;;6.82;6.22;;;;;;;23.65;58.66;93795.56;5050574;28;20469;-45
2021/06/28 09:08:59;;;;;;;3.00;2.80;;;;;;;33.70;30.29;93785.69;5107879;27;20615;-59
2021/06/28 09:11:25;;;;;;;3.28;2.97;;;;;;;33.70;30.71;93782.09;5107760;28;20080;-59
2021/06/28 09:13:53;;;;;;;3.05;2.75;;;;;;;33.63;28.83;93787.03;5106135;28;20026;-58
2021/06/28 09:16:25;;;;;;;;;;;;;;;33.12;30.93;93784.84;5105730;27;20019;-60
2021/06/28 09:18:55;;;;;;;8.88;3.38;;;;;;;32.97;31.91;93788.88;5123594;28;20365;-56
2021/06/28 09:21:27;;;;;;;5.13;3.20;;;;;;;33.05;30.75;93791.91;5126297;27;20031;-57
2021/06/28 09:23:53;;;;;;;12.93;3.58;;;;;;;33.34;29.69;93773.72;5125888;27;20027;-60
2021/06/28 09:26:19;;;;;;;2.85;2.60;;;;;;;33.62;28.47;93782.72;5126131;27;20580;-58
2021/06/28 09:28:48;;;;;;;3.60;3.30;;;;;;;33.54;30.94;93788.34;5126038;27;20034;-58
2021/06/28 09:31:33;;;;;;;5.60;3.53;;;;;;;33.82;29.09;93788.72;5125487;27;20058;-59
2021/06/28 09:34:06;;;;;;;4.93;3.13;;;;;;;34.19;29.16;93787.75;5125741;27;20028;-59
2021/06/28 09:36:32;;;;;;;3.50;2.90;;;;;;;34.67;28.44;93784.66;5114936;27;20039;-59
2021/06/28 09:38:57;;;;;;;3.40;2.40;;;;;;;34.90;28.76;93782.69;5104103;28;20505;-59
2021/06/28 09:41:30;;;;;;;6.80;2.70;;;;;;;35.05;27.80;93778.53;5105480;28;20031;-60
2021/06/28 09:44:06;;;;;;;5.68;2.88;;;;;;;34.92;27.76;93785.56;5109862;28;20027;-60
2021/06/28 09:46:33;;;;;;;3.92;3.63;;;;;;;34.90;29.81;93788.41;5125760;27;20028;-59
2021/06/28 09:48:59;;;;;;;3.90;3.00;;;;;;;34.79;28.84;93776.16;5125253;27;20466;-59
2021/06/28 09:51:29;;;;;;;13.18;3.25;;;;;;;35.00;27.50;93785.66;5125993;27;20141;-59
2021/06/28 09:54:07;;;;;;;8.98;2.80;;;;;;;35.27;28.06;93778.69;5125948;27;20027;-59
2021/06/28 09:56:46;;;;;;;3.70;3.15;;;;;;;35.35;28.01;93780.88;5125689;27;20055;-59
2021/06/28 09:59:32;;;;;;;3.53;2.85;;;;;;;35.00;26.64;93785.66;5119097;27;20050;-58
2021/06/28 10:02:21;;;;;;;3.97;3.58;;;;;;;35.16;28.22;93782.91;5111951;28;20026;-58
2021/06/28 10:07:23;;;;;;;3.40;2.78;;;;;;;35.41;27.44;93778.75;5114662;28;20516;-59
2021/06/28 10:10:09;;;;;;;3.83;2.72;;;;;;;35.50;28.01;93786.03;5099870;28;20031;-59
2021/06/28 10:12:39;;;;;;;2.78;2.53;;;;;;;35.25;26.13;93775.78;5097871;28;20124;-57
2021/06/28 10:15:07;;;;;;;4.68;2.08;;;;;;;35.33;23.73;93781.59;5100301;28;20035;-59
2021/06/28 10:17:33;;;;;;;2.00;1.90;;;;;;;35.37;23.60;93787.34;5106241;28;20047;-59
2021/06/28 10:19:58;;;;;;;2.47;2.28;;;;;;;35.36;23.76;93788.06;5098828;28;20525;-59
2021/06/28 10:22:23;;;;;;;1.90;1.80;;;;;;;35.53;21.72;93793.22;5097738;28;20052;-59
2021/06/28 10:24:49;;;;;;;4.10;1.70;;;;;;;35.67;22.58;93790.41;5099803;28;20158;-59
2021/06/28 10:27:14;;;;;;;1.90;1.77;;;;;;;35.84;21.70;93773.25;5097615;28;20448;-59
2021/06/28 10:29:43;;;;;;;2.35;1.90;;;;;;;36.13;21.57;93783.44;5100069;28;20027;-58
2021/06/28 10:32:10;;;;;;;4.10;2.00;;;;;;;36.27;21.27;93783.50;5100319;28;20031;-59
2021/06/28 10:34:37;;;;;;;2.20;2.00;;;;;;;36.32;22.39;93782.09;5094818;28;20497;-59
2021/06/28 10:37:30;;;;;;;1.77;1.67;;;;;;;36.50;21.35;93785.00;5097977;28;20038;-58
2021/06/28 10:39:58;;;;;;;2.00;1.90;;;;;;;36.18;20.28;93785.63;5097832;28;20032;-57
2021/06/28 10:42:31;;;;;;;2.75;1.73;;;;;;;35.77;22.80;93786.88;5097533;28;20023;-58
2021/06/28 10:44:57;;;;;;;1.73;1.63;;;;;;;36.07;21.33;93777.69;5097389;28;20035;-59
2021/06/28 10:47:23;;;;;;;2.05;1.73;;;;;;;35.72;20.80;93780.41;5098106;27;20043;-59
2021/06/28 10:49:52;;;;;;;4.45;1.70;;;;;;;35.62;21.01;93776.75;5097773;28;20095;-58
2021/06/28 10:52:37;;;;;;;2.75;2.03;;;;;;;35.44;22.62;93776.63;5102127;28;20157;-59
2021/06/28 10:55:17;;;;;;;1.95;1.77;;;;;;;35.32;22.62;93777.28;5098419;28;20062;-58
2021/06/28 10:57:47;;;;;;;3.20;2.28;;;;;;;34.93;23.69;93772.66;5101027;28;20616;-59
2021/06/28 11:00:13;;;;;;;5.60;2.20;;;;;;;34.84;23.20;93765.41;5098103;28;20031;-57
2021/06/28 11:02:41;;;;;;;2.28;2.08;;;;;;;34.48;23.05;93774.41;5100690;28;20024;-59
2021/06/28 11:05:07;;;;;;;2.55;2.35;;;;;;;34.28;24.00;93768.47;5098655;28;20028;-59
2021/06/28 11:07:48;;;;;;;2.75;2.28;;;;;;;34.06;23.07;93768.25;5101787;28;20036;-54
2021/06/28 11:10:41;;;;;;;3.15;2.30;;;;;;;33.31;24.39;93763.69;5094878;28;20016;-57
2021/06/28 11:13:28;;;;;;;2.35;2.25;;;;;;;33.03;26.72;93769.69;5094276;28;20829;-57
2021/06/28 11:15:54;;;;;;;2.95;2.70;;;;;;;32.88;27.85;93771.59;5098407;28;20035;-58
2021/06/28 11:18:30;;;;;;;6.60;2.78;;;;;;;33.03;29.04;93761.13;5101983;28;20031;-56
2021/06/28 11:20:55;;;;;;;3.33;3.08;;;;;;;32.70;29.13;93762.72;5101816;28;20027;-59
2021/06/28 11:23:21;;;;;;;3.08;2.88;;;;;;;32.73;28.40;93760.63;5101684;28;20405;-64
2021/06/28 11:25:48;;;;;;;3.80;2.90;;;;;;;33.01;28.37;93754.66;5098653;28;20412;-61
2021/06/28 11:28:22;;;;;;;2.90;2.65;;;;;;;32.98;26.93;93756.72;5101556;28;20019;-58
2021/06/28 11:31:08;;;;;;;3.72;2.50;;;;;;;32.88;27.02;93751.56;5104588;27;20027;-60
2021/06/28 11:33:48;;;;;;;4.43;2.63;;;;;;;32.88;27.20;93750.84;5092640;28;20035;-56
2021/06/28 11:36:30;;;;;;;4.97;3.00;;;;;;;32.78;27.92;93747.84;5095676;28;20105;-58
2021/06/28 11:39:01;;;;;;;3.42;3.10;;;;;;;32.66;30.35;93736.91;5098380;28;20036;-58
2021/06/28 11:41:29;;;;;;;3.45;3.20;;;;;;;32.54;28.25;93738.88;5092933;28;20023;-54
2021/06/28 11:43:55;;;;;;;6.32;3.60;;;;;;;32.44;29.05;93742.28;5103823;28;20085;-62
2021/06/28 11:46:29;;;;;;;4.22;3.20;;;;;;;32.57;29.43;93743.22;5104170;28;20031;-60
2021/06/28 11:49:06;;;;;;;7.15;3.80;;;;;;;32.51;30.34;93746.69;5102063;28;20708;-59
2021/06/28 11:51:34;;;;;;;3.80;3.47;;;;;;;32.48;27.63;93733.78;5104355;28;20039;-58
2021/06/28 11:54:02;;;;;;;5.00;3.28;;;;;;;32.48;29.61;93738.78;5104078;28;20034;-59
2021/06/28 11:56:33;;;;;;;3.85;3.55;;;;;;;32.51;30.72;93738.09;5100922;28;20092;-57
2021/06/28 11:59:08;;;;;;;3.35;3.13;;;;;;;32.61;29.79;93731.84;5097231;28;20117;-58
2021/06/28 12:01:46;;;;;;;4.80;3.22;;;;;;;32.74;28.95;93728.50;5095592;28;20089;-59
2021/06/28 12:04:22;;;;;;;4.23;3.43;;;;;;;32.64;27.80;93730.44;5094365;27;20063;-55
2021/06/28 12:06:52;;;;;;;4.18;3.80;;;;;;;32.52;28.95;93731.00;5093376;28;20087;-57
2021/06/28 12:09:19;;;;;;;3.47;3.28;;;;;;;32.52;30.44;93724.53;5092782;28;20027;-58
2021/06/28 12:11:54;;;;;;;3.80;2.90;;;;;;;32.49;29.37;93732.34;5097737;28;20504;-57
2021/06/28 12:14:37;;;;;;;3.35;3.05;;;;;;;32.42;28.18;93721.50;5097147;28;20032;-57
2021/06/28 12:17:17;;;;;;;2.78;2.58;;;;;;;32.44;29.42;93722.25;5098907;28;20489;-55
2021/06/28 12:19:56;;;;;;;4.55;3.30;;;;;;;32.38;30.92;93733.56;5097299;28;20024;-58
2021/06/28 12:22:22;;;;;;;4.53;3.17;;;;;;;32.30;30.66;93735.56;5107484;28;20024;-55
2021/06/28 12:24:50;;;;;;;4.38;3.80;;;;;;;32.34;30.23;93729.91;5100974;28;20489;-61
2021/06/28 12:27:19;;;;;;;3.13;2.92;;;;;;;32.26;30.36;93727.66;5099473;28;20028;-58
2021/06/28 12:29:51;;;;;;;3.38;3.08;;;;;;;32.31;29.42;93720.59;5107777;28;20031;-56
2021/06/28 12:32:22;;;;;;;4.15;3.65;;;;;;;32.29;30.39;93723.44;5106788;28;20089;-56
2021/06/28 12:35:03;;;;;;;4.35;3.53;;;;;;;32.32;31.64;93724.91;5104436;28;20084;-56
2021/06/28 12:37:37;;;;;;;3.78;3.47;;;;;;;32.19;29.84;93714.66;5096562;28;20020;-54
2021/06/28 12:40:15;;;;;;;3.92;3.22;;;;;;;31.97;30.25;93720.72;5094520;28;20024;-56
2021/06/28 12:42:48;;;;;;;3.60;3.30;;;;;;;31.76;29.12;93706.72;5086150;28;20031;-53
2021/06/28 12:45:18;;;;;;;3.80;3.38;;;;;;;31.43;29.93;93720.34;5094795;28;20559;-54
2021/06/28 12:47:47;;;;;;;3.38;3.05;;;;;;;31.29;32.05;93711.50;5097197;27;20134;-59
2021/06/28 12:50:14;;;;;;;3.20;2.90;;;;;;;31.10;32.24;93721.03;5106436;28;20034;-58
2021/06/28 12:52:40;;;;;;;6.88;2.90;;;;;;;31.04;30.92;93715.22;5106389;28;20040;-59
2021/06/28 12:55:29;;;;;;;3.58;2.80;;;;;;;30.83;31.54;93716.16;5093459;28;20047;-58
2021/06/28 12:58:10;;;;;;;3.53;2.97;;;;;;;30.72;31.62;93714.47;5086627;28;20133;-58
2021/06/28 13:00:49;;;;;;;4.85;3.65;;;;;;;30.53;33.07;93701.19;5084718;28;20039;-56
2021/06/28 13:03:19;;;;;;;5.95;2.90;;;;;;;30.63;31.90;93716.41;5086182;28;20039;-56
2021/06/28 13:05:50;;;;;;;3.55;2.85;;;;;;;30.57;31.25;93707.00;5095961;28;20036;-58
2021/06/28 13:08:20;;;;;;;4.82;3.10;;;;;;;30.47;31.81;93706.75;5097481;28;20649;-57
2021/06/28 13:11:00;;;;;;;3.45;3.15;;;;;;;30.42;32.61;93708.78;5097347;28;20024;-58
2021/06/28 13:13:28;;;;;;;4.50;3.30;;;;;;;30.42;32.53;93708.78;5097940;28;20087;-58
2021/06/28 13:16:10;;;;;;;3.72;3.38;;;;;;;30.34;31.12;93707.88;5087443;28;20036;-58
2021/06/28 13:18:36;;;;;;;3.42;3.17;;;;;;;30.22;33.01;93707.53;5086326;28;20131;-57
2021/06/28 13:21:16;;;;;;;5.10;2.95;;;;;;;30.15;33.99;93712.34;5085790;28;20119;-59
2021/06/28 13:23:49;;;;;;;4.85;3.17;;;;;;;30.19;34.44;93709.59;5086409;28;20367;-57
2021/06/28 13:26:22;;;;;;;3.10;2.90;;;;;;;30.15;33.38;93714.50;5085990;28;20085;-58